sensor_id;sensor_type;location;lat;lon;timestamp;P1;durP1;ratioP1;P2;durP2;ratioP2
58240;SDS011;45058;55.772;38.224;2023-05-07T00:00:42;15.10;;;8.13;;
58240;SDS011;45058;55.772;38.224;2023-05-07T00:03:08;13.10;;;7.30;;
58240;SDS011;45058;55.772;38.224;2023-05-07T00:05:34;14.77;;;7.83;;
58240;SDS011;45058;55.772;38.224;2023-05-07T00:08:01;13.10;;;7.40;;
58240;SDS011;45058;55.772;38.224;2023-05-07T00:10:27;11.23;;;7.50;;
58240;SDS011;45058;55.772;38.224;2023-05-07T00:12:53;13.93;;;7.20;;
58240;SDS011;45058;55.772;38.224;2023-05-07T00:15:19;10.87;;;7.20;;
58240;SDS011;45058;55.772;38.224;2023-05-07T00:17:46;12.70;;;7.33;;
58240;SDS011;45058;55.772;38.224;2023-05-07T00:20:11;11.43;;;6.67;;
58240;SDS011;45058;55.772;38.224;2023-05-07T00:22:39;13.53;;;8.20;;
58240;SDS011;45058;55.772;38.224;2023-05-07T00:25:18;13.97;;;7.13;;
58240;SDS011;45058;55.772;38.224;2023-05-07T00:27:46;12.63;;;7.03;;
58240;SDS011;45058;55.772;38.224;2023-05-07T00:30:12;12.90;;;7.40;;
58240;SDS011;45058;55.772;38.224;2023-05-07T00:32:38;12.23;;;6.97;;
58240;SDS011;45058;55.772;38.224;2023-05-07T00:35:04;13.50;;;7.67;;
58240;SDS011;45058;55.772;38.224;2023-05-07T00:37:31;14.53;;;7.60;;
58240;SDS011;45058;55.772;38.224;2023-05-07T00:39:57;15.53;;;7.53;;
58240;SDS011;45058;55.772;38.224;2023-05-07T00:42:23;15.77;;;8.53;;
58240;SDS011;45058;55.772;38.224;2023-05-07T00:44:49;13.73;;;7.90;;
58240;SDS011;45058;55.772;38.224;2023-05-07T00:47:15;17.77;;;7.70;;
58240;SDS011;45058;55.772;38.224;2023-05-07T00:49:42;13.83;;;7.60;;
58240;SDS011;45058;55.772;38.224;2023-05-07T00:52:11;14.60;;;8.10;;
58240;SDS011;45058;55.772;38.224;2023-05-07T00:54:40;18.50;;;8.93;;
58240;SDS011;45058;55.772;38.224;2023-05-07T00:57:06;14.77;;;8.37;;
58240;SDS011;45058;55.772;38.224;2023-05-07T00:59:35;12.60;;;7.30;;
58240;SDS011;45058;55.772;38.224;2023-05-07T01:02:01;14.83;;;7.57;;
58240;SDS011;45058;55.772;38.224;2023-05-07T01:04:27;13.57;;;7.90;;
58240;SDS011;45058;55.772;38.224;2023-05-07T01:06:54;14.73;;;8.43;;
58240;SDS011;45058;55.772;38.224;2023-05-07T01:09:22;14.80;;;7.90;;
58240;SDS011;45058;55.772;38.224;2023-05-07T01:11:49;14.67;;;8.73;;
58240;SDS011;45058;55.772;38.224;2023-05-07T01:14:17;15.20;;;8.67;;
58240;SDS011;45058;55.772;38.224;2023-05-07T01:16:43;18.53;;;9.70;;
58240;SDS011;45058;55.772;38.224;2023-05-07T01:19:10;19.00;;;10.13;;
58240;SDS011;45058;55.772;38.224;2023-05-07T01:21:39;15.83;;;9.93;;
58240;SDS011;45058;55.772;38.224;2023-05-07T01:24:11;14.30;;;9.57;;
58240;SDS011;45058;55.772;38.224;2023-05-07T01:26:37;14.67;;;8.63;;
58240;SDS011;45058;55.772;38.224;2023-05-07T01:29:04;13.77;;;8.30;;
58240;SDS011;45058;55.772;38.224;2023-05-07T01:31:30;12.40;;;7.93;;
58240;SDS011;45058;55.772;38.224;2023-05-07T01:33:59;18.13;;;8.10;;
58240;SDS011;45058;55.772;38.224;2023-05-07T01:36:25;15.40;;;8.77;;
58240;SDS011;45058;55.772;38.224;2023-05-07T01:38:52;14.93;;;8.43;;
58240;SDS011;45058;55.772;38.224;2023-05-07T01:41:19;17.77;;;8.57;;
58240;SDS011;45058;55.772;38.224;2023-05-07T01:43:45;14.63;;;8.87;;
58240;SDS011;45058;55.772;38.224;2023-05-07T01:46:12;14.83;;;8.67;;
58240;SDS011;45058;55.772;38.224;2023-05-07T01:48:38;15.33;;;8.37;;
58240;SDS011;45058;55.772;38.224;2023-05-07T01:51:05;17.27;;;8.13;;
58240;SDS011;45058;55.772;38.224;2023-05-07T01:53:35;11.40;;;7.60;;
58240;SDS011;45058;55.772;38.224;2023-05-07T01:56:02;17.47;;;8.93;;
58240;SDS011;45058;55.772;38.224;2023-05-07T01:58:29;13.23;;;8.27;;
58240;SDS011;45058;55.772;38.224;2023-05-07T02:00:55;13.93;;;8.27;;
58240;SDS011;45058;55.772;38.224;2023-05-07T02:03:21;18.00;;;7.47;;
58240;SDS011;45058;55.772;38.224;2023-05-07T02:05:56;12.77;;;7.55;;
58240;SDS011;45058;55.772;38.224;2023-05-07T02:08:32;11.83;;;7.27;;
58240;SDS011;45058;55.772;38.224;2023-05-07T02:10:58;11.07;;;7.20;;
58240;SDS011;45058;55.772;38.224;2023-05-07T02:13:26;15.67;;;8.47;;
58240;SDS011;45058;55.772;38.224;2023-05-07T02:15:54;17.63;;;9.50;;
58240;SDS011;45058;55.772;38.224;2023-05-07T02:18:22;12.70;;;8.07;;
58240;SDS011;45058;55.772;38.224;2023-05-07T02:20:48;13.07;;;7.57;;
58240;SDS011;45058;55.772;38.224;2023-05-07T02:23:16;13.73;;;7.30;;
58240;SDS011;45058;55.772;38.224;2023-05-07T02:25:42;13.07;;;6.87;;
58240;SDS011;45058;55.772;38.224;2023-05-07T02:28:08;12.37;;;7.47;;
58240;SDS011;45058;55.772;38.224;2023-05-07T02:30:59;11.63;;;6.70;;
58240;SDS011;45058;55.772;38.224;2023-05-07T02:33:26;15.77;;;6.87;;
58240;SDS011;45058;55.772;38.224;2023-05-07T02:35:53;14.27;;;8.00;;
58240;SDS011;45058;55.772;38.224;2023-05-07T02:38:19;12.00;;;6.83;;
58240;SDS011;45058;55.772;38.224;2023-05-07T02:40:45;9.70;;;7.20;;
58240;SDS011;45058;55.772;38.224;2023-05-07T02:43:11;12.33;;;7.60;;
58240;SDS011;45058;55.772;38.224;2023-05-07T02:45:40;12.70;;;7.70;;
58240;SDS011;45058;55.772;38.224;2023-05-07T02:48:07;10.93;;;7.03;;
58240;SDS011;45058;55.772;38.224;2023-05-07T02:50:33;11.13;;;7.30;;
58240;SDS011;45058;55.772;38.224;2023-05-07T02:52:59;13.77;;;6.80;;
58240;SDS011;45058;55.772;38.224;2023-05-07T02:55:25;9.77;;;6.67;;
58240;SDS011;45058;55.772;38.224;2023-05-07T02:57:54;13.13;;;6.63;;
58240;SDS011;45058;55.772;38.224;2023-05-07T03:00:20;11.70;;;6.17;;
58240;SDS011;45058;55.772;38.224;2023-05-07T03:02:59;10.50;;;6.50;;
58240;SDS011;45058;55.772;38.224;2023-05-07T03:05:25;10.77;;;6.33;;
58240;SDS011;45058;55.772;38.224;2023-05-07T03:07:51;15.63;;;7.20;;
58240;SDS011;45058;55.772;38.224;2023-05-07T03:10:16;11.20;;;6.50;;
58240;SDS011;45058;55.772;38.224;2023-05-07T03:12:44;11.73;;;5.90;;
58240;SDS011;45058;55.772;38.224;2023-05-07T03:15:15;11.13;;;5.43;;
58240;SDS011;45058;55.772;38.224;2023-05-07T03:17:41;8.97;;;5.03;;
58240;SDS011;45058;55.772;38.224;2023-05-07T03:20:07;10.43;;;5.17;;
58240;SDS011;45058;55.772;38.224;2023-05-07T03:22:34;9.50;;;5.17;;
58240;SDS011;45058;55.772;38.224;2023-05-07T03:25:01;8.90;;;4.97;;
58240;SDS011;45058;55.772;38.224;2023-05-07T03:27:31;9.30;;;5.03;;
58240;SDS011;45058;55.772;38.224;2023-05-07T03:29:57;10.27;;;4.80;;
58240;SDS011;45058;55.772;38.224;2023-05-07T03:32:23;10.30;;;4.87;;
58240;SDS011;45058;55.772;38.224;2023-05-07T03:34:50;11.73;;;5.53;;
58240;SDS011;45058;55.772;38.224;2023-05-07T03:37:16;12.03;;;5.23;;
58240;SDS011;45058;55.772;38.224;2023-05-07T03:39:42;8.57;;;4.47;;
58240;SDS011;45058;55.772;38.224;2023-05-07T03:42:09;11.33;;;4.43;;
58240;SDS011;45058;55.772;38.224;2023-05-07T03:44:36;8.57;;;4.03;;
58240;SDS011;45058;55.772;38.224;2023-05-07T03:47:02;9.50;;;4.27;;
58240;SDS011;45058;55.772;38.224;2023-05-07T03:49:29;7.63;;;3.77;;
58240;SDS011;45058;55.772;38.224;2023-05-07T03:51:55;8.97;;;3.87;;
58240;SDS011;45058;55.772;38.224;2023-05-07T03:54:22;9.57;;;3.97;;
58240;SDS011;45058;55.772;38.224;2023-05-07T03:56:48;7.70;;;3.70;;
58240;SDS011;45058;55.772;38.224;2023-05-07T03:59:14;11.23;;;3.90;;
58240;SDS011;45058;55.772;38.224;2023-05-07T04:01:42;5.07;;;3.40;;
58240;SDS011;45058;55.772;38.224;2023-05-07T04:04:13;5.47;;;3.60;;
58240;SDS011;45058;55.772;38.224;2023-05-07T04:06:39;11.07;;;3.80;;
58240;SDS011;45058;55.772;38.224;2023-05-07T04:09:05;7.37;;;4.63;;
58240;SDS011;45058;55.772;38.224;2023-05-07T04:11:32;7.27;;;3.50;;
58240;SDS011;45058;55.772;38.224;2023-05-07T04:13:58;6.23;;;3.57;;
58240;SDS011;45058;55.772;38.224;2023-05-07T04:16:24;5.67;;;3.33;;
58240;SDS011;45058;55.772;38.224;2023-05-07T04:18:50;7.43;;;3.53;;
58240;SDS011;45058;55.772;38.224;2023-05-07T04:21:17;5.87;;;3.00;;
58240;SDS011;45058;55.772;38.224;2023-05-07T04:23:48;3.53;;;2.60;;
58240;SDS011;45058;55.772;38.224;2023-05-07T04:26:14;6.93;;;3.10;;
58240;SDS011;45058;55.772;38.224;2023-05-07T04:28:43;4.93;;;2.73;;
58240;SDS011;45058;55.772;38.224;2023-05-07T04:31:09;5.80;;;3.30;;
58240;SDS011;45058;55.772;38.224;2023-05-07T04:33:36;8.23;;;2.87;;
58240;SDS011;45058;55.772;38.224;2023-05-07T04:36:04;6.20;;;3.33;;
58240;SDS011;45058;55.772;38.224;2023-05-07T04:38:34;7.57;;;3.20;;
58240;SDS011;45058;55.772;38.224;2023-05-07T04:41:03;5.70;;;3.77;;
58240;SDS011;45058;55.772;38.224;2023-05-07T04:43:32;7.37;;;3.10;;
58240;SDS011;45058;55.772;38.224;2023-05-07T04:45:59;5.90;;;2.87;;
58240;SDS011;45058;55.772;38.224;2023-05-07T04:48:26;5.77;;;2.53;;
58240;SDS011;45058;55.772;38.224;2023-05-07T04:50:53;4.43;;;2.53;;
58240;SDS011;45058;55.772;38.224;2023-05-07T04:53:20;3.17;;;2.03;;
58240;SDS011;45058;55.772;38.224;2023-05-07T04:55:48;5.67;;;2.10;;
58240;SDS011;45058;55.772;38.224;2023-05-07T04:58:16;5.17;;;2.00;;
58240;SDS011;45058;55.772;38.224;2023-05-07T05:00:44;3.40;;;2.23;;
58240;SDS011;45058;55.772;38.224;2023-05-07T05:03:11;5.57;;;2.47;;
58240;SDS011;45058;55.772;38.224;2023-05-07T05:05:38;3.50;;;1.70;;
58240;SDS011;45058;55.772;38.224;2023-05-07T05:08:05;3.83;;;2.13;;
58240;SDS011;45058;55.772;38.224;2023-05-07T05:10:34;5.40;;;1.40;;
58240;SDS011;45058;55.772;38.224;2023-05-07T05:13:00;2.37;;;1.63;;
58240;SDS011;45058;55.772;38.224;2023-05-07T05:15:27;3.13;;;1.80;;
58240;SDS011;45058;55.772;38.224;2023-05-07T05:17:54;3.80;;;1.37;;
58240;SDS011;45058;55.772;38.224;2023-05-07T05:20:20;5.10;;;1.60;;
58240;SDS011;45058;55.772;38.224;2023-05-07T05:22:47;7.10;;;1.90;;
58240;SDS011;45058;55.772;38.224;2023-05-07T05:25:14;2.70;;;1.50;;
58240;SDS011;45058;55.772;38.224;2023-05-07T05:27:41;3.40;;;1.63;;
58240;SDS011;45058;55.772;38.224;2023-05-07T05:30:08;3.93;;;1.77;;
58240;SDS011;45058;55.772;38.224;2023-05-07T05:32:35;2.50;;;1.57;;
58240;SDS011;45058;55.772;38.224;2023-05-07T05:35:04;3.33;;;1.60;;
58240;SDS011;45058;55.772;38.224;2023-05-07T05:37:30;2.70;;;1.27;;
58240;SDS011;45058;55.772;38.224;2023-05-07T05:39:58;5.47;;;2.30;;
58240;SDS011;45058;55.772;38.224;2023-05-07T05:42:29;3.30;;;1.53;;
58240;SDS011;45058;55.772;38.224;2023-05-07T05:44:55;9.40;;;1.70;;
58240;SDS011;45058;55.772;38.224;2023-05-07T05:47:22;2.03;;;1.20;;
58240;SDS011;45058;55.772;38.224;2023-05-07T05:49:49;2.60;;;1.40;;
58240;SDS011;45058;55.772;38.224;2023-05-07T05:52:15;4.90;;;1.60;;
58240;SDS011;45058;55.772;38.224;2023-05-07T05:54:43;3.90;;;2.20;;
58240;SDS011;45058;55.772;38.224;2023-05-07T05:57:09;3.73;;;2.10;;
58240;SDS011;45058;55.772;38.224;2023-05-07T05:59:36;4.30;;;1.80;;
58240;SDS011;45058;55.772;38.224;2023-05-07T06:02:02;3.87;;;1.60;;
58240;SDS011;45058;55.772;38.224;2023-05-07T06:04:29;4.23;;;1.73;;
58240;SDS011;45058;55.772;38.224;2023-05-07T06:06:56;3.50;;;1.50;;
58240;SDS011;45058;55.772;38.224;2023-05-07T06:09:24;3.00;;;1.63;;
58240;SDS011;45058;55.772;38.224;2023-05-07T06:11:51;2.47;;;1.73;;
58240;SDS011;45058;55.772;38.224;2023-05-07T06:14:17;3.83;;;1.87;;
58240;SDS011;45058;55.772;38.224;2023-05-07T06:16:43;3.33;;;1.80;;
58240;SDS011;45058;55.772;38.224;2023-05-07T06:19:10;2.07;;;1.60;;
58240;SDS011;45058;55.772;38.224;2023-05-07T06:21:38;5.90;;;1.97;;
58240;SDS011;45058;55.772;38.224;2023-05-07T06:24:05;4.03;;;1.40;;
58240;SDS011;45058;55.772;38.224;2023-05-07T06:26:32;3.43;;;1.50;;
58240;SDS011;45058;55.772;38.224;2023-05-07T06:28:58;4.00;;;1.83;;
58240;SDS011;45058;55.772;38.224;2023-05-07T06:31:28;3.27;;;1.77;;
58240;SDS011;45058;55.772;38.224;2023-05-07T06:34:01;7.93;;;1.63;;
58240;SDS011;45058;55.772;38.224;2023-05-07T06:36:32;5.90;;;1.60;;
58240;SDS011;45058;55.772;38.224;2023-05-07T06:39:03;4.33;;;1.70;;
58240;SDS011;45058;55.772;38.224;2023-05-07T06:41:31;2.87;;;1.47;;
58240;SDS011;45058;55.772;38.224;2023-05-07T06:44:02;2.80;;;1.30;;
58240;SDS011;45058;55.772;38.224;2023-05-07T06:46:32;3.30;;;1.03;;
58240;SDS011;45058;55.772;38.224;2023-05-07T06:48:59;1.87;;;1.10;;
58240;SDS011;45058;55.772;38.224;2023-05-07T06:51:26;7.73;;;1.50;;
58240;SDS011;45058;55.772;38.224;2023-05-07T06:53:53;1.90;;;1.20;;
58240;SDS011;45058;55.772;38.224;2023-05-07T06:56:20;7.90;;;1.63;;
58240;SDS011;45058;55.772;38.224;2023-05-07T06:58:46;2.70;;;1.30;;
58240;SDS011;45058;55.772;38.224;2023-05-07T07:01:13;1.97;;;1.07;;
58240;SDS011;45058;55.772;38.224;2023-05-07T07:03:39;3.27;;;1.10;;
58240;SDS011;45058;55.772;38.224;2023-05-07T07:06:06;3.50;;;1.60;;
58240;SDS011;45058;55.772;38.224;2023-05-07T07:08:32;1.63;;;1.30;;
58240;SDS011;45058;55.772;38.224;2023-05-07T07:10:58;2.47;;;1.03;;
58240;SDS011;45058;55.772;38.224;2023-05-07T07:13:24;2.47;;;1.30;;
58240;SDS011;45058;55.772;38.224;2023-05-07T07:15:51;2.65;;;1.10;;
58240;SDS011;45058;55.772;38.224;2023-05-07T07:18:18;2.47;;;1.20;;
58240;SDS011;45058;55.772;38.224;2023-05-07T07:20:46;4.72;;;0.95;;
58240;SDS011;45058;55.772;38.224;2023-05-07T21:57:07;38.17;;;17.38;;
58240;SDS011;45058;55.772;38.224;2023-05-07T21:59:34;38.23;;;15.50;;
58240;SDS011;45058;55.772;38.224;2023-05-07T22:02:02;38.47;;;15.90;;
58240;SDS011;45058;55.772;38.224;2023-05-07T22:04:28;35.83;;;15.10;;
58240;SDS011;45058;55.772;38.224;2023-05-07T22:06:55;56.60;;;17.27;;
58240;SDS011;45058;55.772;38.224;2023-05-07T22:09:22;46.50;;;17.30;;
58240;SDS011;45058;55.772;38.224;2023-05-07T22:11:48;56.23;;;18.90;;
58240;SDS011;45058;55.772;38.224;2023-05-07T22:14:14;52.50;;;20.20;;
58240;SDS011;45058;55.772;38.224;2023-05-07T22:16:40;62.30;;;17.13;;
58240;SDS011;45058;55.772;38.224;2023-05-07T22:19:06;45.83;;;17.87;;
58240;SDS011;45058;55.772;38.224;2023-05-07T22:21:32;35.97;;;17.67;;
58240;SDS011;45058;55.772;38.224;2023-05-07T22:23:58;41.47;;;17.40;;
58240;SDS011;45058;55.772;38.224;2023-05-07T22:26:24;64.63;;;17.03;;
58240;SDS011;45058;55.772;38.224;2023-05-07T22:28:50;40.93;;;15.80;;
58240;SDS011;45058;55.772;38.224;2023-05-07T22:31:16;35.43;;;15.27;;
58240;SDS011;45058;55.772;38.224;2023-05-07T22:33:42;39.00;;;15.57;;
58240;SDS011;45058;55.772;38.224;2023-05-07T22:36:08;46.37;;;15.77;;
58240;SDS011;45058;55.772;38.224;2023-05-07T22:38:35;42.63;;;17.00;;
58240;SDS011;45058;55.772;38.224;2023-05-07T22:41:01;42.93;;;15.70;;
58240;SDS011;45058;55.772;38.224;2023-05-07T22:43:27;45.27;;;16.23;;
58240;SDS011;45058;55.772;38.224;2023-05-07T22:45:56;37.30;;;17.33;;
58240;SDS011;45058;55.772;38.224;2023-05-07T22:48:24;54.83;;;17.57;;
58240;SDS011;45058;55.772;38.224;2023-05-07T22:50:50;50.60;;;19.13;;
58240;SDS011;45058;55.772;38.224;2023-05-07T22:53:17;44.63;;;16.53;;
58240;SDS011;45058;55.772;38.224;2023-05-07T22:55:44;33.33;;;16.00;;
58240;SDS011;45058;55.772;38.224;2023-05-07T22:58:10;45.33;;;15.57;;
58240;SDS011;45058;55.772;38.224;2023-05-07T23:00:36;35.53;;;15.93;;
58240;SDS011;45058;55.772;38.224;2023-05-07T23:03:02;44.77;;;17.73;;
58240;SDS011;45058;55.772;38.224;2023-05-07T23:05:28;43.40;;;17.83;;
58240;SDS011;45058;55.772;38.224;2023-05-07T23:07:54;38.97;;;17.67;;
58240;SDS011;45058;55.772;38.224;2023-05-07T23:10:20;46.17;;;17.83;;
58240;SDS011;45058;55.772;38.224;2023-05-07T23:12:46;41.97;;;17.20;;
58240;SDS011;45058;55.772;38.224;2023-05-07T23:15:16;37.97;;;18.17;;
58240;SDS011;45058;55.772;38.224;2023-05-07T23:17:43;47.17;;;17.63;;
58240;SDS011;45058;55.772;38.224;2023-05-07T23:20:10;40.23;;;16.93;;
58240;SDS011;45058;55.772;38.224;2023-05-07T23:22:36;47.77;;;17.37;;
58240;SDS011;45058;55.772;38.224;2023-05-07T23:25:02;39.00;;;18.13;;
58240;SDS011;45058;55.772;38.224;2023-05-07T23:27:29;43.87;;;18.80;;
58240;SDS011;45058;55.772;38.224;2023-05-07T23:29:56;41.73;;;18.20;;
58240;SDS011;45058;55.772;38.224;2023-05-07T23:32:22;48.53;;;16.90;;
58240;SDS011;45058;55.772;38.224;2023-05-07T23:34:48;50.30;;;17.63;;
58240;SDS011;45058;55.772;38.224;2023-05-07T23:37:15;44.73;;;18.23;;
58240;SDS011;45058;55.772;38.224;2023-05-07T23:39:41;43.07;;;16.57;;
58240;SDS011;45058;55.772;38.224;2023-05-07T23:42:07;43.67;;;17.03;;
58240;SDS011;45058;55.772;38.224;2023-05-07T23:44:34;53.43;;;18.00;;
58240;SDS011;45058;55.772;38.224;2023-05-07T23:47:00;39.17;;;16.97;;
58240;SDS011;45058;55.772;38.224;2023-05-07T23:49:26;36.17;;;17.23;;
58240;SDS011;45058;55.772;38.224;2023-05-07T23:51:52;56.23;;;18.93;;
58240;SDS011;45058;55.772;38.224;2023-05-07T23:54:18;58.13;;;19.53;;
58240;SDS011;45058;55.772;38.224;2023-05-07T23:56:44;55.50;;;19.80;;
58240;SDS011;45058;55.772;38.224;2023-05-07T23:59:10;46.73;;;18.37;;
